Time;durP1;ratioP1;P1;durP2;ratioP2;P2;SDS_P1;SDS_P2;PMS_P1;PMS_P2;Temp;Humidity;BMP_temperature;BMP_pressure;BME280_temperature;BME280_humidity;BME280_pressure;Samples;Min_cycle;Max_cycle;Signal;HPM_P1;HPM_P2
2022/01/13 00:04:56;;;;;;;59.7;72;;;;;;;-2.2;69.4;100500;;;;
2022/01/13 00:15:09;;;;;;;56.1;68.8;;;;;;;-2.3;70.2;100500;;;;
2022/01/13 00:24:59;;;;;;;56.1;68.8;;;;;;;-2;69.9;100490;;;;
2022/01/13 00:35:57;;;;;;;56.8;69.2;;;;;;;-1.9;69.9;100480;;;;
2022/01/13 00:45:56;;;;;;;56.8;69.2;;;;;;;-1.8;70;100500;;;;
2022/01/13 00:56:56;;;;;;;56.8;69.2;;;;;;;-1.7;70.3;100480;;;;
2022/01/13 01:06:56;;;;;;;52.1;62.7;;;;;;;-1.5;70.9;100510;;;;
2022/01/13 01:16:56;;;;;;;52.1;62.7;;;;;;;-1.5;71.7;100520;;;;
2022/01/13 01:27:59;;;;;;;52.1;62.7;;;;;;;-1.2;73.1;100520;;;;
2022/01/13 01:38:58;;;;;;;47.9;57.7;;;;;;;-1;74.2;100530;;;;
2022/01/13 01:49:58;;;;;;;47.9;57.7;;;;;;;-1;74.9;100530;;;;
2022/01/13 01:59:56;;;;;;;47.9;57.7;;;;;;;-1;74.6;100520;;;;
2022/01/13 02:09:56;;;;;;;47.8;56.3;;;;;;;-0.9;75.2;100510;;;;
2022/01/13 02:20:56;;;;;;;47.8;56.3;;;;;;;-0.8;76.4;100500;;;;
2022/01/13 02:31:56;;;;;;;47.8;56.3;;;;;;;-0.8;78;100530;;;;
2022/01/13 02:41:56;;;;;;;54.2;70.2;;;;;;;-0.7;78.7;100490;;;;
2022/01/13 02:51:56;;;;;;;54.2;70.2;;;;;;;-0.6;79.6;100460;;;;
2022/01/13 03:02:56;;;;;;;54.2;70.2;;;;;;;-0.4;80.4;100460;;;;
2022/01/13 03:12:58;;;;;;;42.8;51.2;;;;;;;-0.2;81.5;100500;;;;
2022/01/13 03:22:56;;;;;;;42.8;51.2;;;;;;;0;81.9;100490;;;;
2022/01/13 03:32:56;;;;;;;42.8;51.2;;;;;;;0.2;82.3;100480;;;;
2022/01/13 03:42:57;;;;;;;25;33.4;;;;;;;0.3;82.3;100460;;;;
2022/01/13 03:53:56;;;;;;;25;33.4;;;;;;;0.4;82.1;100440;;;;
2022/01/13 04:04:56;;;;;;;18.5;22.1;;;;;;;0.5;82.1;100480;;;;
2022/01/13 04:15:56;;;;;;;18.5;22.1;;;;;;;0.6;81.9;100480;;;;
2022/01/13 04:26:57;;;;;;;18.5;22.1;;;;;;;0.6;82.1;100470;;;;
2022/01/13 04:37:56;;;;;;;18.7;21.6;;;;;;;0.5;82.5;100460;;;;
2022/01/13 04:47:57;;;;;;;18.7;21.6;;;;;;;0.7;82.1;100460;;;;
2022/01/13 04:58:56;;;;;;;18.7;21.6;;;;;;;0.7;82;100450;;;;
2022/01/13 05:09:56;;;;;;;18;23.4;;;;;;;0.6;81.9;100460;;;;
2022/01/13 05:21:01;;;;;;;18;23.4;;;;;;;0.7;82;100450;;;;
2022/01/13 05:30:56;;;;;;;18;23.4;;;;;;;0.7;82.3;100450;;;;
2022/01/13 05:41:56;;;;;;;21.3;27.5;;;;;;;0.6;82.5;100450;;;;
2022/01/13 05:52:56;;;;;;;21.3;27.5;;;;;;;0.6;82.7;100430;;;;
2022/01/13 06:02:56;;;;;;;21.3;27.5;;;;;;;0.6;82.8;100440;;;;
2022/01/13 06:12:57;;;;;;;21.2;27.3;;;;;;;0.8;82.7;100450;;;;
2022/01/13 06:22:57;;;;;;;21.2;27.3;;;;;;;0.8;82.5;100440;;;;
2022/01/13 06:33:56;;;;;;;21.2;27.3;;;;;;;0.9;81.8;100440;;;;
2022/01/13 06:43:56;;;;;;;24;28.9;;;;;;;1;81.5;100430;;;;
2022/01/13 06:54:57;;;;;;;24;28.9;;;;;;;1;81.1;100450;;;;
2022/01/13 07:05:57;;;;;;;20.6;23.9;;;;;;;1.1;80.3;100450;;;;
2022/01/13 07:16:56;;;;;;;20.6;23.9;;;;;;;1.2;79.7;100440;;;;
2022/01/13 07:26:57;;;;;;;20.6;23.9;;;;;;;1.3;79;100440;;;;
2022/01/13 07:37:58;;;;;;;18.4;21.5;;;;;;;1.3;78.4;100440;;;;
2022/01/13 07:48:57;;;;;;;18.4;21.5;;;;;;;1.5;78.1;100450;;;;
2022/01/13 07:58:57;;;;;;;18.4;21.5;;;;;;;1.5;77.9;100430;;;;
2022/01/13 08:08:57;;;;;;;16.4;19.8;;;;;;;1.7;77.1;100380;;;;
2022/01/13 08:19:57;;;;;;;16.4;19.8;;;;;;;1.8;76.2;100370;;;;
2022/01/13 08:30:57;;;;;;;16.4;19.8;;;;;;;2.2;75.5;100360;;;;
2022/01/13 08:40:57;;;;;;;14.8;19;;;;;;;2.4;74.9;100360;;;;
2022/01/13 08:51:58;;;;;;;14.8;19;;;;;;;2.6;75.1;100370;;;;
2022/01/13 09:02:57;;;;;;;14.8;19;;;;;;;2.9;73.9;100360;;;;
2022/01/13 09:13:58;;;;;;;16.7;19;;;;;;;3.1;73.6;100350;;;;
2022/01/13 09:23:57;;;;;;;16.7;19;;;;;;;3.1;73;100330;;;;
2022/01/13 09:33:57;;;;;;;21.6;26.5;;;;;;;3.1;73.2;100340;;;;
2022/01/13 09:44:57;;;;;;;21.6;26.5;;;;;;;3;72.5;100340;;;;
2022/01/13 09:54:57;;;;;;;21.6;26.5;;;;;;;2.9;72.1;100340;;;;
2022/01/13 10:04:57;;;;;;;36.7;43.2;;;;;;;2.9;71.9;100330;;;;
2022/01/13 10:25:57;;;;;;;36.7;43.2;;;;;;;3.1;70.5;100330;;;;
2022/01/13 10:35:57;;;;;;;35.3;42.1;;;;;;;3.4;70;100290;;;;
2022/01/13 10:46:57;;;;;;;35.3;42.1;;;;;;;4;68.4;100280;;;;
2022/01/13 10:56:57;;;;;;;35.3;42.1;;;;;;;4;67.2;100260;;;;
2022/01/13 11:06:57;;;;;;;32;38.5;;;;;;;4.2;66.7;100250;;;;
2022/01/13 11:17:57;;;;;;;32;38.5;;;;;;;4.2;67.4;100250;;;;
2022/01/13 11:27:57;;;;;;;32;38.5;;;;;;;4.4;67;100210;;;;
2022/01/13 11:38:57;;;;;;;23.4;28.9;;;;;;;4.5;67;100200;;;;
2022/01/13 11:48:58;;;;;;;23.4;28.9;;;;;;;4.8;66;100200;;;;
2022/01/13 11:58:57;;;;;;;23.4;28.9;;;;;;;4.8;65.6;100180;;;;
2022/01/13 12:09:57;;;;;;;24.7;31.5;;;;;;;5;65.6;100160;;;;
2022/01/13 12:20:03;;;;;;;24.7;31.5;;;;;;;5;65.6;100140;;;;
2022/01/13 12:29:57;;;;;;;24.7;31.5;;;;;;;5.2;65.3;100140;;;;
2022/01/13 12:39:58;;;;;;;28.2;38.9;;;;;;;5.1;65.5;100140;;;;
2022/01/13 12:50:57;;;;;;;28.2;38.9;;;;;;;5.1;65;100110;;;;
2022/01/13 13:01:57;;;;;;;28.2;38.9;;;;;;;4.8;66;100100;;;;
2022/01/13 13:12:57;;;;;;;24;30.1;;;;;;;4.8;66.4;100090;;;;
2022/01/13 13:22:58;;;;;;;24;30.1;;;;;;;4.6;67.5;100080;;;;
2022/01/13 13:32:57;;;;;;;25;29.8;;;;;;;4.7;67.5;100070;;;;
2022/01/13 13:42:57;;;;;;;25;29.8;;;;;;;4.5;68.1;100060;;;;
2022/01/13 13:53:57;;;;;;;25;29.8;;;;;;;4.4;69.3;100060;;;;
2022/01/13 14:04:57;;;;;;;23.6;28.2;;;;;;;4.3;69.9;100070;;;;
2022/01/13 14:15:57;;;;;;;23.6;28.2;;;;;;;4.5;70.4;100060;;;;
2022/01/13 14:26:57;;;;;;;23.6;28.2;;;;;;;4.5;71.4;100060;;;;
2022/01/13 14:37:57;;;;;;;26;30.8;;;;;;;4.5;71.9;100070;;;;
2022/01/13 14:47:57;;;;;;;26;30.8;;;;;;;4.5;72.6;100070;;;;
2022/01/13 14:58:57;;;;;;;26;30.8;;;;;;;4.4;73.7;100060;;;;
2022/01/13 15:08:57;;;;;;;24.5;29.4;;;;;;;4.5;74.1;100060;;;;
2022/01/13 15:19:00;;;;;;;24.5;29.4;;;;;;;4.4;74.5;100050;;;;
2022/01/13 15:29:57;;;;;;;24.5;29.4;;;;;;;4.5;74.3;100100;;;;
2022/01/13 15:39:57;;;;;;;28.8;32.3;;;;;;;4;74.9;100130;;;;
2022/01/13 15:50:57;;;;;;;28.8;32.3;;;;;;;3.9;75.6;100130;;;;
2022/01/13 16:01:57;;;;;;;28.8;32.3;;;;;;;4;75.4;100140;;;;
2022/01/13 16:11:57;;;;;;;27.3;31.8;;;;;;;3.9;75.7;100140;;;;
2022/01/13 16:22:57;;;;;;;27.3;31.8;;;;;;;3.7;76;100140;;;;
2022/01/13 16:32:59;;;;;;;25.5;29.7;;;;;;;3.7;76.1;100100;;;;
2022/01/13 16:43:59;;;;;;;25.5;29.7;;;;;;;3.4;76.4;100090;;;;
2022/01/13 16:53:57;;;;;;;25.5;29.7;;;;;;;3.1;77.5;100070;;;;
2022/01/13 17:04:57;;;;;;;29.5;34.6;;;;;;;3;78.3;100050;;;;
2022/01/13 17:14:58;;;;;;;29.5;34.6;;;;;;;2.9;78.6;100050;;;;
2022/01/13 17:24:57;;;;;;;29.5;34.6;;;;;;;2.8;79.1;100070;;;;
2022/01/13 17:35:57;;;;;;;34.7;40.6;;;;;;;2.8;79.3;100070;;;;
2022/01/13 17:45:57;;;;;;;34.7;40.6;;;;;;;3.1;78.8;100070;;;;
2022/01/13 17:56:57;;;;;;;34.7;40.6;;;;;;;3.3;77.9;100090;;;;
2022/01/13 18:06:57;;;;;;;29.9;37.5;;;;;;;3.3;77.2;100100;;;;
2022/01/13 18:16:57;;;;;;;29.9;37.5;;;;;;;3.4;76.7;100080;;;;
2022/01/13 18:26:57;;;;;;;29.9;37.5;;;;;;;3.5;76.3;100100;;;;
2022/01/13 18:36:57;;;;;;;30.8;36.4;;;;;;;3.5;76.2;100100;;;;
2022/01/13 18:48:02;;;;;;;30.8;36.4;;;;;;;3.5;75.9;100080;;;;
2022/01/13 18:58:57;;;;;;;30.8;36.4;;;;;;;3.5;75.8;100060;;;;
2022/01/13 19:09:57;;;;;;;29.8;34.9;;;;;;;3.5;75.7;100080;;;;
2022/01/13 19:19:58;;;;;;;29.8;34.9;;;;;;;3.5;75.6;100070;;;;
2022/01/13 19:29:57;;;;;;;29.8;34.9;;;;;;;3.8;74.9;100090;;;;
2022/01/13 19:40:57;;;;;;;28.8;36.1;;;;;;;3.9;74.4;100090;;;;
2022/01/13 19:50:57;;;;;;;28.8;36.1;;;;;;;4.2;73.9;100100;;;;
2022/01/13 20:01:57;;;;;;;23;27.9;;;;;;;4.3;73.4;100090;;;;
2022/01/13 20:11:57;;;;;;;23;27.9;;;;;;;4.5;73.1;100100;;;;
2022/01/13 20:22:57;;;;;;;23;27.9;;;;;;;4.7;72.8;100070;;;;
2022/01/13 20:32:58;;;;;;;17.5;22.7;;;;;;;4.7;72.8;100070;;;;
2022/01/13 20:42:57;;;;;;;17.5;22.7;;;;;;;4.7;73;100070;;;;
2022/01/13 20:53:57;;;;;;;17.5;22.7;;;;;;;4.6;73.5;100050;;;;
2022/01/13 21:04:57;;;;;;;16.8;21.8;;;;;;;4.7;73.2;100040;;;;
2022/01/13 21:14:57;;;;;;;16.8;21.8;;;;;;;4.6;73.4;100020;;;;
2022/01/13 21:24:57;;;;;;;16.8;21.8;;;;;;;4.6;73.7;100010;;;;
2022/01/13 21:34:57;;;;;;;18;22;;;;;;;4.5;73.9;100000;;;;
2022/01/13 21:44:57;;;;;;;18;22;;;;;;;4.5;73.9;100000;;;;
2022/01/13 21:54:57;;;;;;;18;22;;;;;;;4.4;74.2;99960;;;;
2022/01/13 22:04:57;;;;;;;18.1;21.7;;;;;;;4.4;74.5;99980;;;;
2022/01/13 22:14:57;;;;;;;18.1;21.7;;;;;;;4.3;74.7;99940;;;;
2022/01/13 22:24:57;;;;;;;18.1;21.7;;;;;;;4.3;74.4;99940;;;;
2022/01/13 22:35:57;;;;;;;17.1;20.5;;;;;;;4.2;74.8;99950;;;;
2022/01/13 22:45:58;;;;;;;17.1;20.5;;;;;;;4.2;74.8;99940;;;;
2022/01/13 22:56:57;;;;;;;17.1;20.5;;;;;;;4.3;74.7;99920;;;;
2022/01/13 23:06:57;;;;;;;19;25;;;;;;;4.2;75.1;99890;;;;
2022/01/13 23:27:58;;;;;;;19;25;;;;;;;4.2;74.9;99850;;;;
2022/01/13 23:37:57;;;;;;;19.1;24.6;;;;;;;4.2;74.6;99850;;;;
2022/01/13 23:48:58;;;;;;;19.1;24.6;;;;;;;4.3;74.4;99840;;;;
2022/01/13 23:58:57;;;;;;;19.1;24.6;;;;;;;4.3;73.9;99840;;;;
